Time,TemperatureF,DewpointF,PressureIn,WindDirection,WindDirectionDegrees,WindSpeedMPH,WindSpeedGustMPH,Humidity,HourlyPrecipIn,Conditions,Clouds,dailyrainin,SoftwareType,DateUTC
2013-09-20 00:11:00,58.2,55.0,30.10,SSE,150,0.0,0.0,88,0.00,,,0.00,weatherlink.com 1.10,2013-09-20 04:11:00,
2013-09-20 00:26:00,57.9,54.0,30.10,SSE,150,0.0,0.0,88,0.00,,,0.00,weatherlink.com 1.10,2013-09-20 04:26:00,
2013-09-20 00:42:00,57.4,55.0,30.10,SSE,150,0.0,0.0,90,0.00,,,0.00,weatherlink.com 1.10,2013-09-20 04:42:00,
2013-09-20 00:57:00,57.5,55.0,30.10,SSE,150,0.0,0.0,90,0.00,,,0.00,weatherlink.com 1.10,2013-09-20 04:57:00,
2013-09-20 01:12:00,56.7,54.0,30.10,SSE,150,0.0,0.0,91,0.00,,,0.00,weatherlink.com 1.10,2013-09-20 05:12:00,
2013-09-20 01:27:00,56.9,55.0,30.11,SSE,150,0.0,0.0,92,0.00,,,0.00,weatherlink.com 1.10,2013-09-20 05:27:00,
2013-09-20 01:44:00,56.6,54.0,30.11,SSE,150,0.0,0.0,92,0.00,,,0.00,weatherlink.com 1.10,2013-09-20 05:44:00,
2013-09-20 01:59:00,56.3,54.0,30.11,SSE,150,0.0,0.0,92,0.00,,,0.00,weatherlink.com 1.10,2013-09-20 05:59:00,
2013-09-20 02:14:00,56.3,54.0,30.11,SSE,150,0.0,0.0,93,0.00,,,0.00,weatherlink.com 1.10,2013-09-20 06:14:00,
2013-09-20 02:29:00,56.2,54.0,30.11,SSE,150,0.0,0.0,93,0.00,,,0.00,weatherlink.com 1.10,2013-09-20 06:29:00,
2013-09-20 02:44:00,55.8,54.0,30.10,SSE,150,0.0,0.0,94,0.00,,,0.00,weatherlink.com 1.10,2013-09-20 06:44:00,
2013-09-20 02:59:00,56.1,54.0,30.10,SSE,150,0.0,0.0,94,0.00,,,0.00,weatherlink.com 1.10,2013-09-20 06:59:00,
2013-09-20 03:14:00,56.0,54.0,30.10,SSE,150,0.0,0.0,94,0.00,,,0.00,weatherlink.com 1.10,2013-09-20 07:14:00,
2013-09-20 03:29:00,55.6,54.0,30.10,SSE,150,0.0,0.0,94,0.00,,,0.00,weatherlink.com 1.10,2013-09-20 07:29:00,
2013-09-20 03:45:00,55.5,54.0,30.10,SSE,150,0.0,0.0,95,0.00,,,0.00,weatherlink.com 1.10,2013-09-20 07:45:00,
2013-09-20 04:00:00,55.5,54.0,30.10,SSE,150,0.0,0.0,96,0.00,,,0.00,weatherlink.com 1.10,2013-09-20 08:00:00,
2013-09-20 04:15:00,55.4,54.0,30.10,SSE,150,0.0,0.0,96,0.00,,,0.00,weatherlink.com 1.10,2013-09-20 08:15:00,
2013-09-20 04:30:00,55.1,54.0,30.10,SSE,150,0.0,0.0,96,0.00,,,0.00,weatherlink.com 1.10,2013-09-20 08:30:00,
2013-09-20 04:46:00,55.0,54.0,30.10,SSE,150,0.0,0.0,96,0.00,,,0.00,weatherlink.com 1.10,2013-09-20 08:46:00,
2013-09-20 05:01:00,55.0,54.0,30.10,SSE,150,0.0,0.0,96,0.00,,,0.00,weatherlink.com 1.10,2013-09-20 09:01:00,
2013-09-20 05:16:00,54.5,53.0,30.11,SSE,150,0.0,0.0,96,0.00,,,0.00,weatherlink.com 1.10,2013-09-20 09:16:00,
2013-09-20 05:31:00,54.6,54.0,30.11,SSE,150,0.0,0.0,96,0.00,,,0.00,weatherlink.com 1.10,2013-09-20 09:31:00,
2013-09-20 05:47:00,54.5,54.0,30.11,SSE,150,0.0,0.0,97,0.00,,,0.00,weatherlink.com 1.10,2013-09-20 09:47:00,
2013-09-20 06:02:00,54.3,54.0,30.11,SSE,150,0.0,0.0,97,0.00,,,0.00,weatherlink.com 1.10,2013-09-20 10:02:00,
2013-09-20 06:17:00,54.3,54.0,30.11,SSE,150,0.0,0.0,97,0.00,,,0.00,weatherlink.com 1.10,2013-09-20 10:17:00,
2013-09-20 06:32:00,54.2,53.0,30.11,SSE,150,0.0,0.0,97,0.00,,,0.00,weatherlink.com 1.10,2013-09-20 10:32:00,
2013-09-20 06:47:00,54.3,54.0,30.11,SSE,150,0.0,0.0,97,0.00,,,0.00,weatherlink.com 1.10,2013-09-20 10:47:00,
2013-09-20 07:02:00,54.4,54.0,30.10,SSE,150,0.0,0.0,97,0.00,,,0.00,weatherlink.com 1.10,2013-09-20 11:02:00,
2013-09-20 07:19:00,54.1,53.0,30.10,SSE,150,0.0,0.0,97,0.00,,,0.00,weatherlink.com 1.10,2013-09-20 11:19:00,
2013-09-20 07:34:00,54.4,54.0,30.10,SSE,150,0.0,0.0,97,0.00,,,0.00,weatherlink.com 1.10,2013-09-20 11:34:00,
2013-09-20 07:49:00,55.3,55.0,30.09,SSE,150,0.0,0.0,98,0.00,,,0.00,weatherlink.com 1.10,2013-09-20 11:49:00,
2013-09-20 08:04:00,55.4,55.0,30.09,SSE,150,0.0,0.0,97,0.00,,,0.00,weatherlink.com 1.10,2013-09-20 12:04:00,
2013-09-20 08:19:00,56.5,56.0,30.09,SSE,150,0.0,0.0,98,0.00,,,0.00,weatherlink.com 1.10,2013-09-20 12:19:00,
2013-09-20 08:34:00,57.4,57.0,30.09,SSE,150,0.0,1.0,97,0.00,,,0.00,weatherlink.com 1.10,2013-09-20 12:34:00,
2013-09-20 08:50:00,58.8,57.0,30.10,SSE,150,0.0,0.0,95,0.00,,,0.00,weatherlink.com 1.10,2013-09-20 12:50:00,
2013-09-20 09:05:00,60.5,58.0,30.10,SSE,150,0.0,0.0,91,0.00,,,0.00,weatherlink.com 1.10,2013-09-20 13:05:00,
2013-09-20 09:20:00,62.8,59.0,30.10,SSE,165,0.0,0.0,87,0.00,,,0.00,weatherlink.com 1.10,2013-09-20 13:20:00,
2013-09-20 09:36:00,64.5,60.0,30.11,South,173,0.0,0.0,84,0.00,,,0.00,weatherlink.com 1.10,2013-09-20 13:36:00,
2013-09-20 09:51:00,65.4,59.0,30.10,South,173,0.0,0.0,80,0.00,,,0.00,weatherlink.com 1.10,2013-09-20 13:51:00,
2013-09-20 10:06:00,66.1,59.0,30.10,WSW,240,1.0,3.0,78,0.00,,,0.00,weatherlink.com 1.10,2013-09-20 14:06:00,
2013-09-20 10:21:00,67.8,60.0,30.10,SSE,150,0.0,2.0,77,0.00,,,0.00,weatherlink.com 1.10,2013-09-20 14:21:00,
2013-09-20 10:37:00,69.3,61.0,30.10,WSW,246,1.0,3.0,74,0.00,,,0.00,weatherlink.com 1.10,2013-09-20 14:37:00,
2013-09-20 10:52:00,68.5,60.0,30.10,East,92,1.0,3.0,73,0.00,,,0.00,weatherlink.com 1.10,2013-09-20 14:52:00,
2013-09-20 11:07:00,71.2,61.0,30.09,South,171,0.0,2.0,70,0.00,,,0.00,weatherlink.com 1.10,2013-09-20 15:07:00,
2013-09-20 11:22:00,71.3,61.0,30.08,East,92,0.0,3.0,70,0.00,,,0.00,weatherlink.com 1.10,2013-09-20 15:22:00,
2013-09-20 11:37:00,72.6,61.0,30.08,South,178,0.0,7.0,68,0.00,,,0.00,weatherlink.com 1.10,2013-09-20 15:37:00,
2013-09-20 11:54:00,73.7,61.0,30.08,SSW,210,1.0,3.0,64,0.00,,,0.00,weatherlink.com 1.10,2013-09-20 15:54:00,
2013-09-20 12:24:00,73.7,61.0,30.07,WSW,247,3.0,4.0,65,0.00,,,0.00,weatherlink.com 1.10,2013-09-20 16:24:00,
2013-09-20 12:39:00,74.0,60.0,30.07,West,266,3.0,7.0,61,0.00,,,0.00,weatherlink.com 1.10,2013-09-20 16:39:00,
2013-09-20 12:54:00,75.8,61.0,30.07,South,172,1.0,7.0,60,0.00,,,0.00,weatherlink.com 1.10,2013-09-20 16:54:00,
2013-09-20 13:10:00,73.2,60.0,30.07,SW,232,4.0,6.0,63,0.00,,,0.00,weatherlink.com 1.10,2013-09-20 17:10:00,
2013-09-20 13:24:00,75.9,60.0,30.06,WSW,252,0.0,8.0,58,0.00,,,0.00,weatherlink.com 1.10,2013-09-20 17:24:00,
2013-09-20 13:40:00,78.3,62.0,30.05,South,178,1.0,4.0,57,0.00,,,0.00,weatherlink.com 1.10,2013-09-20 17:40:00,
2013-09-20 13:55:00,77.7,61.0,30.04,West,264,1.0,2.0,56,0.00,,,0.00,weatherlink.com 1.10,2013-09-20 17:55:00,
2013-09-20 14:10:00,76.4,60.0,30.04,SSE,165,0.0,3.0,57,0.00,,,0.00,weatherlink.com 1.10,2013-09-20 18:10:00,
2013-09-20 14:25:00,76.4,61.0,30.05,SSW,210,1.0,6.0,59,0.00,,,0.00,weatherlink.com 1.10,2013-09-20 18:25:00,
2013-09-20 14:41:00,78.0,60.0,30.04,SE,136,1.0,3.0,55,0.00,,,0.00,weatherlink.com 1.10,2013-09-20 18:41:00,
2013-09-20 14:56:00,77.8,61.0,30.03,West,261,0.0,4.0,57,0.00,,,0.00,weatherlink.com 1.10,2013-09-20 18:56:00,
2013-09-20 15:11:00,79.5,61.0,30.02,SSW,202,0.0,2.0,54,0.00,,,0.00,weatherlink.com 1.10,2013-09-20 19:11:00,
2013-09-20 15:26:00,77.1,60.0,30.02,South,173,1.0,4.0,55,0.00,,,0.00,weatherlink.com 1.10,2013-09-20 19:26:00,
2013-09-20 15:42:00,79.2,61.0,30.02,SSE,158,0.0,6.0,53,0.00,,,0.00,weatherlink.com 1.10,2013-09-20 19:42:00,
2013-09-20 15:57:00,78.6,60.0,30.01,SSW,207,2.0,4.0,54,0.00,,,0.00,weatherlink.com 1.10,2013-09-20 19:57:00,
2013-09-20 16:12:00,78.5,60.0,30.01,SW,225,0.0,5.0,53,0.00,,,0.00,weatherlink.com 1.10,2013-09-20 20:12:00,
2013-09-20 16:27:00,78.7,61.0,30.00,WSW,254,3.0,5.0,54,0.00,,,0.00,weatherlink.com 1.10,2013-09-20 20:27:00,
2013-09-20 16:44:00,78.4,60.0,30.00,NW,316,0.0,3.0,54,0.00,,,0.00,weatherlink.com 1.10,2013-09-20 20:44:00,
2013-09-20 16:59:00,78.0,60.0,30.00,NW,319,0.0,2.0,55,0.00,,,0.00,weatherlink.com 1.10,2013-09-20 20:59:00,
2013-09-20 17:14:00,78.2,60.0,30.00,South,181,1.0,3.0,53,0.00,,,0.00,weatherlink.com 1.10,2013-09-20 21:14:00,
2013-09-20 17:29:00,76.6,60.0,30.00,SW,232,0.0,2.0,56,0.00,,,0.00,weatherlink.com 1.10,2013-09-20 21:29:00,
2013-09-20 17:44:00,75.8,59.0,29.99,West,263,0.0,3.0,57,0.00,,,0.00,weatherlink.com 1.10,2013-09-20 21:44:00,
2013-09-20 17:59:00,73.6,59.0,29.99,ESE,108,1.0,4.0,60,0.00,,,0.00,weatherlink.com 1.10,2013-09-20 21:59:00,
2013-09-20 18:14:00,72.6,58.0,29.98,SSW,200,0.0,3.0,61,0.00,,,0.00,weatherlink.com 1.10,2013-09-20 22:14:00,
2013-09-20 18:30:00,71.8,58.0,29.99,ESE,117,0.0,1.0,63,0.00,,,0.00,weatherlink.com 1.10,2013-09-20 22:30:00,
2013-09-20 18:45:00,70.8,58.0,29.98,WSW,250,1.0,2.0,64,0.00,,,0.00,weatherlink.com 1.10,2013-09-20 22:45:00,
2013-09-20 19:00:00,70.0,58.0,29.98,South,183,0.0,2.0,66,0.00,,,0.00,weatherlink.com 1.10,2013-09-20 23:00:00,
2013-09-20 19:15:00,69.1,58.0,29.98,South,183,0.0,1.0,68,0.00,,,0.00,weatherlink.com 1.10,2013-09-20 23:15:00,
2013-09-20 19:30:00,68.2,58.0,29.98,South,183,0.0,1.0,70,0.00,,,0.00,weatherlink.com 1.10,2013-09-20 23:30:00,
2013-09-20 19:46:00,67.7,58.0,29.98,South,177,0.0,1.0,71,0.00,,,0.00,weatherlink.com 1.10,2013-09-20 23:46:00,
2013-09-20 20:01:00,67.1,58.0,29.98,South,178,0.0,1.0,73,0.00,,,0.00,weatherlink.com 1.10,2013-09-21 00:01:00,
2013-09-20 20:16:00,66.3,58.0,29.98,South,178,0.0,0.0,75,0.00,,,0.00,weatherlink.com 1.10,2013-09-21 00:16:00,
2013-09-20 20:31:00,65.2,57.0,29.99,South,178,0.0,0.0,76,0.00,,,0.00,weatherlink.com 1.10,2013-09-21 00:31:00,
2013-09-20 20:47:00,64.6,58.0,29.99,South,178,0.0,0.0,78,0.00,,,0.00,weatherlink.com 1.10,2013-09-21 00:47:00,
2013-09-20 21:02:00,64.4,58.0,29.99,South,178,0.0,0.0,79,0.00,,,0.00,weatherlink.com 1.10,2013-09-21 01:02:00,
2013-09-20 21:17:00,64.4,58.0,29.99,South,178,0.0,1.0,80,0.00,,,0.00,weatherlink.com 1.10,2013-09-21 01:17:00,
2013-09-20 21:32:00,64.1,58.0,30.00,SSE,165,0.0,1.0,81,0.00,,,0.00,weatherlink.com 1.10,2013-09-21 01:32:00,
2013-09-20 21:49:00,63.5,58.0,30.00,South,172,0.0,1.0,82,0.00,,,0.00,weatherlink.com 1.10,2013-09-21 01:49:00,
2013-09-20 22:04:00,63.0,58.0,30.00,South,172,0.0,1.0,83,0.00,,,0.00,weatherlink.com 1.10,2013-09-21 02:04:00,
2013-09-20 22:19:00,62.5,58.0,30.00,South,172,0.0,1.0,84,0.00,,,0.00,weatherlink.com 1.10,2013-09-21 02:19:00,
2013-09-20 22:34:00,62.1,58.0,30.00,South,172,0.0,1.0,86,0.00,,,0.00,weatherlink.com 1.10,2013-09-21 02:34:00,
2013-09-20 22:49:00,62.0,58.0,30.00,South,172,0.0,1.0,87,0.00,,,0.00,weatherlink.com 1.10,2013-09-21 02:49:00,
2013-09-20 23:04:00,61.8,58.0,30.00,SSW,196,0.0,1.0,87,0.00,,,0.00,weatherlink.com 1.10,2013-09-21 03:04:00,
2013-09-20 23:19:00,61.8,58.0,30.01,SE,146,0.0,1.0,87,0.00,,,0.00,weatherlink.com 1.10,2013-09-21 03:19:00,
2013-09-20 23:34:00,61.4,58.0,30.00,SE,146,0.0,1.0,88,0.00,,,0.00,weatherlink.com 1.10,2013-09-21 03:34:00,
2013-09-20 23:49:00,60.9,58.0,30.00,SE,146,0.0,1.0,89,0.00,,,0.00,weatherlink.com 1.10,2013-09-21 03:49:00,